sensor_id;sensor_type;location;lat;lon;timestamp;P1;durP1;ratioP1;P2;durP2;ratioP2
55210;SDS011;41082;52.822;6.666;2022-12-10T00:02:08;44.00;;;22.98;;
55210;SDS011;41082;52.822;6.666;2022-12-10T00:04:34;47.53;;;24.25;;
55210;SDS011;41082;52.822;6.666;2022-12-10T00:07:00;47.53;;;23.83;;
55210;SDS011;41082;52.822;6.666;2022-12-10T00:09:26;46.47;;;23.65;;
55210;SDS011;41082;52.822;6.666;2022-12-10T00:11:51;45.03;;;22.88;;
55210;SDS011;41082;52.822;6.666;2022-12-10T00:14:17;48.65;;;22.60;;
55210;SDS011;41082;52.822;6.666;2022-12-10T00:16:42;48.90;;;23.58;;
55210;SDS011;41082;52.822;6.666;2022-12-10T00:19:08;50.72;;;24.45;;
55210;SDS011;41082;52.822;6.666;2022-12-10T00:21:34;48.13;;;23.13;;
55210;SDS011;41082;52.822;6.666;2022-12-10T00:24:01;48.78;;;23.10;;
55210;SDS011;41082;52.822;6.666;2022-12-10T00:26:31;46.13;;;24.45;;
55210;SDS011;41082;52.822;6.666;2022-12-10T00:29:00;47.15;;;25.02;;
55210;SDS011;41082;52.822;6.666;2022-12-10T00:31:28;46.55;;;23.67;;
55210;SDS011;41082;52.822;6.666;2022-12-10T00:33:56;47.13;;;24.00;;
55210;SDS011;41082;52.822;6.666;2022-12-10T00:36:25;48.03;;;25.02;;
55210;SDS011;41082;52.822;6.666;2022-12-10T00:38:53;50.60;;;23.80;;
55210;SDS011;41082;52.822;6.666;2022-12-10T00:41:18;46.78;;;23.63;;
55210;SDS011;41082;52.822;6.666;2022-12-10T00:43:44;45.08;;;24.65;;
55210;SDS011;41082;52.822;6.666;2022-12-10T00:46:11;47.60;;;24.10;;
55210;SDS011;41082;52.822;6.666;2022-12-10T00:48:38;48.28;;;24.45;;
55210;SDS011;41082;52.822;6.666;2022-12-10T00:51:05;46.50;;;23.23;;
55210;SDS011;41082;52.822;6.666;2022-12-10T00:53:33;55.33;;;23.80;;
55210;SDS011;41082;52.822;6.666;2022-12-10T00:56:00;51.75;;;24.02;;
55210;SDS011;41082;52.822;6.666;2022-12-10T00:58:26;45.08;;;23.20;;
55210;SDS011;41082;52.822;6.666;2022-12-10T01:00:53;44.28;;;23.27;;
55210;SDS011;41082;52.822;6.666;2022-12-10T01:03:19;49.28;;;25.02;;
55210;SDS011;41082;52.822;6.666;2022-12-10T01:05:45;44.00;;;23.73;;
55210;SDS011;41082;52.822;6.666;2022-12-10T01:08:11;45.15;;;22.27;;
55210;SDS011;41082;52.822;6.666;2022-12-10T01:10:36;47.53;;;24.30;;
55210;SDS011;41082;52.822;6.666;2022-12-10T01:13:02;45.50;;;23.80;;
55210;SDS011;41082;52.822;6.666;2022-12-10T01:15:28;48.53;;;23.95;;
55210;SDS011;41082;52.822;6.666;2022-12-10T01:17:54;50.47;;;24.23;;
55210;SDS011;41082;52.822;6.666;2022-12-10T01:20:19;50.50;;;24.70;;
55210;SDS011;41082;52.822;6.666;2022-12-10T01:22:45;48.30;;;24.05;;
55210;SDS011;41082;52.822;6.666;2022-12-10T01:25:10;45.50;;;23.92;;
55210;SDS011;41082;52.822;6.666;2022-12-10T01:27:36;48.78;;;24.35;;
55210;SDS011;41082;52.822;6.666;2022-12-10T01:30:02;49.65;;;24.38;;
55210;SDS011;41082;52.822;6.666;2022-12-10T01:32:27;45.88;;;24.25;;
55210;SDS011;41082;52.822;6.666;2022-12-10T01:34:53;51.08;;;24.75;;
55210;SDS011;41082;52.822;6.666;2022-12-10T01:37:18;47.33;;;24.67;;
55210;SDS011;41082;52.822;6.666;2022-12-10T01:39:44;47.25;;;25.35;;
55210;SDS011;41082;52.822;6.666;2022-12-10T01:42:11;49.97;;;25.90;;
55210;SDS011;41082;52.822;6.666;2022-12-10T01:47:07;52.00;;;24.88;;
55210;SDS011;41082;52.822;6.666;2022-12-10T01:49:34;51.13;;;25.55;;
55210;SDS011;41082;52.822;6.666;2022-12-10T01:52:07;47.70;;;24.55;;
55210;SDS011;41082;52.822;6.666;2022-12-10T01:54:35;46.53;;;25.02;;
55210;SDS011;41082;52.822;6.666;2022-12-10T01:57:17;47.55;;;25.23;;
55210;SDS011;41082;52.822;6.666;2022-12-10T01:59:46;47.20;;;23.83;;
55210;SDS011;41082;52.822;6.666;2022-12-10T02:10:42;54.10;;;25.25;;
55210;SDS011;41082;52.822;6.666;2022-12-10T02:15:49;56.38;;;25.02;;
55210;SDS011;41082;52.822;6.666;2022-12-10T02:20:52;55.22;;;26.95;;
55210;SDS011;41082;52.822;6.666;2022-12-10T02:23:24;59.85;;;27.70;;
55210;SDS011;41082;52.822;6.666;2022-12-10T02:25:53;57.75;;;29.45;;
55210;SDS011;41082;52.822;6.666;2022-12-10T02:31:37;57.28;;;26.23;;
55210;SDS011;41082;52.822;6.666;2022-12-10T02:34:05;54.85;;;27.58;;
55210;SDS011;41082;52.822;6.666;2022-12-10T02:36:32;54.47;;;26.20;;
55210;SDS011;41082;52.822;6.666;2022-12-10T02:39:02;55.58;;;26.83;;
55210;SDS011;41082;52.822;6.666;2022-12-10T02:41:34;52.55;;;25.95;;
55210;SDS011;41082;52.822;6.666;2022-12-10T02:44:03;55.63;;;27.20;;
55210;SDS011;41082;52.822;6.666;2022-12-10T02:46:33;52.90;;;26.27;;
55210;SDS011;41082;52.822;6.666;2022-12-10T02:49:03;54.30;;;27.83;;
55210;SDS011;41082;52.822;6.666;2022-12-10T02:51:31;52.67;;;27.02;;
55210;SDS011;41082;52.822;6.666;2022-12-10T02:54:01;58.15;;;26.13;;
55210;SDS011;41082;52.822;6.666;2022-12-10T02:56:30;55.65;;;29.17;;
55210;SDS011;41082;52.822;6.666;2022-12-10T02:59:06;60.00;;;28.30;;
55210;SDS011;41082;52.822;6.666;2022-12-10T03:04:05;57.00;;;28.17;;
55210;SDS011;41082;52.822;6.666;2022-12-10T03:06:46;58.13;;;27.95;;
55210;SDS011;41082;52.822;6.666;2022-12-10T03:12:15;56.72;;;27.73;;
55210;SDS011;41082;52.822;6.666;2022-12-10T03:14:47;55.50;;;28.33;;
55210;SDS011;41082;52.822;6.666;2022-12-10T03:17:13;58.85;;;28.80;;
55210;SDS011;41082;52.822;6.666;2022-12-10T03:19:41;57.60;;;28.63;;
55210;SDS011;41082;52.822;6.666;2022-12-10T03:22:10;55.65;;;27.60;;
55210;SDS011;41082;52.822;6.666;2022-12-10T03:24:39;53.85;;;26.48;;
55210;SDS011;41082;52.822;6.666;2022-12-10T03:27:06;58.13;;;28.65;;
55210;SDS011;41082;52.822;6.666;2022-12-10T03:29:37;58.83;;;27.65;;
55210;SDS011;41082;52.822;6.666;2022-12-10T03:32:08;56.38;;;27.58;;
55210;SDS011;41082;52.822;6.666;2022-12-10T03:34:33;53.92;;;27.40;;
55210;SDS011;41082;52.822;6.666;2022-12-10T03:36:59;56.90;;;27.13;;
55210;SDS011;41082;52.822;6.666;2022-12-10T03:39:26;50.58;;;26.95;;
55210;SDS011;41082;52.822;6.666;2022-12-10T03:41:52;51.17;;;27.25;;
55210;SDS011;41082;52.822;6.666;2022-12-10T03:44:28;53.92;;;25.92;;
55210;SDS011;41082;52.822;6.666;2022-12-10T03:47:02;62.85;;;28.83;;
55210;SDS011;41082;52.822;6.666;2022-12-10T03:49:29;61.78;;;29.13;;
55210;SDS011;41082;52.822;6.666;2022-12-10T03:51:55;60.22;;;29.50;;
55210;SDS011;41082;52.822;6.666;2022-12-10T03:54:21;54.38;;;28.05;;
55210;SDS011;41082;52.822;6.666;2022-12-10T03:56:47;54.55;;;27.17;;
55210;SDS011;41082;52.822;6.666;2022-12-10T03:59:13;58.92;;;28.90;;
55210;SDS011;41082;52.822;6.666;2022-12-10T04:01:39;57.92;;;27.67;;
55210;SDS011;41082;52.822;6.666;2022-12-10T04:04:05;55.00;;;26.73;;
55210;SDS011;41082;52.822;6.666;2022-12-10T04:06:30;57.97;;;28.48;;
55210;SDS011;41082;52.822;6.666;2022-12-10T04:08:56;52.88;;;26.98;;
55210;SDS011;41082;52.822;6.666;2022-12-10T04:11:22;53.88;;;26.23;;
55210;SDS011;41082;52.822;6.666;2022-12-10T04:13:48;57.70;;;26.70;;
55210;SDS011;41082;52.822;6.666;2022-12-10T04:16:33;55.30;;;26.67;;
55210;SDS011;41082;52.822;6.666;2022-12-10T04:19:00;60.80;;;27.55;;
55210;SDS011;41082;52.822;6.666;2022-12-10T04:21:27;57.33;;;28.77;;
55210;SDS011;41082;52.822;6.666;2022-12-10T04:24:13;56.30;;;27.77;;
55210;SDS011;41082;52.822;6.666;2022-12-10T04:26:59;56.47;;;27.48;;
55210;SDS011;41082;52.822;6.666;2022-12-10T04:29:28;62.47;;;28.83;;
55210;SDS011;41082;52.822;6.666;2022-12-10T04:31:55;57.35;;;27.85;;
55210;SDS011;41082;52.822;6.666;2022-12-10T04:34:21;60.75;;;27.55;;
55210;SDS011;41082;52.822;6.666;2022-12-10T04:36:48;63.05;;;29.98;;
55210;SDS011;41082;52.822;6.666;2022-12-10T04:39:14;56.88;;;27.23;;
55210;SDS011;41082;52.822;6.666;2022-12-10T04:41:40;59.13;;;29.42;;
55210;SDS011;41082;52.822;6.666;2022-12-10T04:44:07;54.75;;;27.77;;
55210;SDS011;41082;52.822;6.666;2022-12-10T04:46:33;58.83;;;28.27;;
55210;SDS011;41082;52.822;6.666;2022-12-10T04:48:59;58.30;;;28.25;;
55210;SDS011;41082;52.822;6.666;2022-12-10T04:51:25;57.38;;;28.73;;
55210;SDS011;41082;52.822;6.666;2022-12-10T04:53:50;55.95;;;26.67;;
55210;SDS011;41082;52.822;6.666;2022-12-10T04:56:16;52.63;;;26.75;;
55210;SDS011;41082;52.822;6.666;2022-12-10T04:58:42;59.97;;;29.17;;
55210;SDS011;41082;52.822;6.666;2022-12-10T05:01:08;57.80;;;28.25;;
55210;SDS011;41082;52.822;6.666;2022-12-10T05:03:35;58.25;;;28.27;;
55210;SDS011;41082;52.822;6.666;2022-12-10T05:06:02;58.65;;;27.65;;
55210;SDS011;41082;52.822;6.666;2022-12-10T05:08:29;61.80;;;28.70;;
55210;SDS011;41082;52.822;6.666;2022-12-10T05:10:55;57.53;;;26.85;;
55210;SDS011;41082;52.822;6.666;2022-12-10T05:13:26;57.75;;;28.27;;
55210;SDS011;41082;52.822;6.666;2022-12-10T05:15:51;60.67;;;30.38;;
55210;SDS011;41082;52.822;6.666;2022-12-10T05:18:17;58.03;;;30.80;;
55210;SDS011;41082;52.822;6.666;2022-12-10T05:20:42;59.22;;;28.58;;
55210;SDS011;41082;52.822;6.666;2022-12-10T05:23:08;68.80;;;33.63;;
55210;SDS011;41082;52.822;6.666;2022-12-10T05:28:30;64.63;;;28.67;;
55210;SDS011;41082;52.822;6.666;2022-12-10T05:30:58;62.55;;;30.25;;
55210;SDS011;41082;52.822;6.666;2022-12-10T05:33:24;60.45;;;29.00;;
55210;SDS011;41082;52.822;6.666;2022-12-10T05:36:00;61.65;;;29.17;;
55210;SDS011;41082;52.822;6.666;2022-12-10T05:38:28;61.25;;;27.88;;
55210;SDS011;41082;52.822;6.666;2022-12-10T05:40:55;52.08;;;26.40;;
55210;SDS011;41082;52.822;6.666;2022-12-10T05:43:20;59.60;;;29.10;;
55210;SDS011;41082;52.822;6.666;2022-12-10T05:45:46;60.03;;;29.20;;
55210;SDS011;41082;52.822;6.666;2022-12-10T05:48:13;62.05;;;28.63;;
55210;SDS011;41082;52.822;6.666;2022-12-10T05:50:39;58.17;;;28.67;;
55210;SDS011;41082;52.822;6.666;2022-12-10T05:53:05;55.10;;;26.95;;
55210;SDS011;41082;52.822;6.666;2022-12-10T05:55:31;56.08;;;27.30;;
55210;SDS011;41082;52.822;6.666;2022-12-10T05:57:58;55.53;;;26.38;;
55210;SDS011;41082;52.822;6.666;2022-12-10T06:00:24;59.75;;;27.77;;
55210;SDS011;41082;52.822;6.666;2022-12-10T06:02:50;58.47;;;29.38;;
55210;SDS011;41082;52.822;6.666;2022-12-10T06:05:16;52.92;;;26.48;;
55210;SDS011;41082;52.822;6.666;2022-12-10T06:07:42;55.72;;;27.40;;
55210;SDS011;41082;52.822;6.666;2022-12-10T06:10:07;57.33;;;27.08;;
55210;SDS011;41082;52.822;6.666;2022-12-10T06:12:33;59.75;;;28.20;;
55210;SDS011;41082;52.822;6.666;2022-12-10T06:14:59;59.10;;;28.00;;
55210;SDS011;41082;52.822;6.666;2022-12-10T06:17:24;59.60;;;28.58;;
55210;SDS011;41082;52.822;6.666;2022-12-10T06:19:50;59.33;;;27.85;;
55210;SDS011;41082;52.822;6.666;2022-12-10T06:22:16;60.08;;;27.50;;
55210;SDS011;41082;52.822;6.666;2022-12-10T06:24:41;58.30;;;29.00;;
55210;SDS011;41082;52.822;6.666;2022-12-10T06:27:07;61.63;;;29.30;;
55210;SDS011;41082;52.822;6.666;2022-12-10T06:29:32;55.33;;;27.02;;
55210;SDS011;41082;52.822;6.666;2022-12-10T06:31:58;54.20;;;27.15;;
55210;SDS011;41082;52.822;6.666;2022-12-10T06:34:23;53.75;;;25.55;;
55210;SDS011;41082;52.822;6.666;2022-12-10T06:36:49;55.08;;;27.77;;
55210;SDS011;41082;52.822;6.666;2022-12-10T06:39:15;59.42;;;28.08;;
55210;SDS011;41082;52.822;6.666;2022-12-10T06:41:40;57.47;;;26.50;;
55210;SDS011;41082;52.822;6.666;2022-12-10T06:44:09;57.50;;;28.77;;
55210;SDS011;41082;52.822;6.666;2022-12-10T06:46:35;60.45;;;27.70;;
55210;SDS011;41082;52.822;6.666;2022-12-10T06:49:01;62.53;;;28.38;;
55210;SDS011;41082;52.822;6.666;2022-12-10T06:51:27;60.78;;;27.83;;
55210;SDS011;41082;52.822;6.666;2022-12-10T06:53:53;57.47;;;27.80;;
55210;SDS011;41082;52.822;6.666;2022-12-10T06:56:19;60.15;;;30.45;;
55210;SDS011;41082;52.822;6.666;2022-12-10T06:58:45;60.80;;;28.30;;
55210;SDS011;41082;52.822;6.666;2022-12-10T07:01:12;56.78;;;27.63;;
55210;SDS011;41082;52.822;6.666;2022-12-10T07:03:40;86.60;;;39.03;;
55210;SDS011;41082;52.822;6.666;2022-12-10T07:06:06;70.13;;;33.97;;
55210;SDS011;41082;52.822;6.666;2022-12-10T07:08:34;76.43;;;39.72;;
55210;SDS011;41082;52.822;6.666;2022-12-10T07:11:04;72.45;;;39.90;;
55210;SDS011;41082;52.822;6.666;2022-12-10T07:13:35;64.57;;;32.53;;
55210;SDS011;41082;52.822;6.666;2022-12-10T07:16:01;72.82;;;35.25;;
55210;SDS011;41082;52.822;6.666;2022-12-10T07:18:27;65.60;;;30.30;;
55210;SDS011;41082;52.822;6.666;2022-12-10T07:20:53;56.55;;;28.58;;
55210;SDS011;41082;52.822;6.666;2022-12-10T07:23:19;63.42;;;33.92;;
55210;SDS011;41082;52.822;6.666;2022-12-10T07:25:45;75.13;;;36.83;;
55210;SDS011;41082;52.822;6.666;2022-12-10T07:28:11;69.53;;;35.85;;
55210;SDS011;41082;52.822;6.666;2022-12-10T07:30:36;61.78;;;30.42;;
55210;SDS011;41082;52.822;6.666;2022-12-10T07:33:02;76.65;;;36.15;;
55210;SDS011;41082;52.822;6.666;2022-12-10T07:35:27;58.38;;;28.92;;
55210;SDS011;41082;52.822;6.666;2022-12-10T07:37:53;60.47;;;29.23;;
55210;SDS011;41082;52.822;6.666;2022-12-10T07:40:19;59.53;;;28.85;;
55210;SDS011;41082;52.822;6.666;2022-12-10T07:42:44;61.05;;;29.38;;
55210;SDS011;41082;52.822;6.666;2022-12-10T07:45:10;64.03;;;29.20;;
55210;SDS011;41082;52.822;6.666;2022-12-10T07:47:36;64.78;;;32.67;;
55210;SDS011;41082;52.822;6.666;2022-12-10T07:50:04;65.63;;;31.30;;
55210;SDS011;41082;52.822;6.666;2022-12-10T07:52:30;65.72;;;31.35;;
55210;SDS011;41082;52.822;6.666;2022-12-10T07:54:56;64.10;;;31.80;;
55210;SDS011;41082;52.822;6.666;2022-12-10T07:57:21;65.35;;;28.27;;
55210;SDS011;41082;52.822;6.666;2022-12-10T07:59:47;59.38;;;28.92;;
55210;SDS011;41082;52.822;6.666;2022-12-10T08:02:12;64.18;;;30.42;;
55210;SDS011;41082;52.822;6.666;2022-12-10T08:04:38;63.42;;;29.52;;
55210;SDS011;41082;52.822;6.666;2022-12-10T08:07:03;63.67;;;31.13;;
55210;SDS011;41082;52.822;6.666;2022-12-10T08:09:29;60.90;;;29.00;;
55210;SDS011;41082;52.822;6.666;2022-12-10T08:11:55;63.60;;;29.48;;
55210;SDS011;41082;52.822;6.666;2022-12-10T08:14:20;60.58;;;29.88;;
55210;SDS011;41082;52.822;6.666;2022-12-10T08:16:46;58.83;;;28.33;;
55210;SDS011;41082;52.822;6.666;2022-12-10T08:19:12;60.95;;;29.98;;
55210;SDS011;41082;52.822;6.666;2022-12-10T08:21:37;62.45;;;28.65;;
55210;SDS011;41082;52.822;6.666;2022-12-10T08:24:03;61.22;;;30.08;;
55210;SDS011;41082;52.822;6.666;2022-12-10T08:26:29;64.43;;;32.33;;
55210;SDS011;41082;52.822;6.666;2022-12-10T08:28:56;86.22;;;46.63;;
55210;SDS011;41082;52.822;6.666;2022-12-10T08:31:23;90.75;;;49.47;;
55210;SDS011;41082;52.822;6.666;2022-12-10T08:33:50;68.97;;;33.40;;
55210;SDS011;41082;52.822;6.666;2022-12-10T08:36:16;69.07;;;34.80;;
55210;SDS011;41082;52.822;6.666;2022-12-10T08:38:43;60.80;;;29.67;;
55210;SDS011;41082;52.822;6.666;2022-12-10T08:41:09;61.38;;;30.63;;
55210;SDS011;41082;52.822;6.666;2022-12-10T08:43:36;64.65;;;31.42;;
55210;SDS011;41082;52.822;6.666;2022-12-10T08:46:02;67.97;;;31.60;;
55210;SDS011;41082;52.822;6.666;2022-12-10T08:48:28;63.35;;;29.65;;
55210;SDS011;41082;52.822;6.666;2022-12-10T08:50:54;66.18;;;29.83;;
55210;SDS011;41082;52.822;6.666;2022-12-10T08:53:20;60.92;;;30.15;;
55210;SDS011;41082;52.822;6.666;2022-12-10T08:55:46;59.92;;;29.42;;
55210;SDS011;41082;52.822;6.666;2022-12-10T08:58:15;59.80;;;28.55;;
55210;SDS011;41082;52.822;6.666;2022-12-10T09:00:41;65.80;;;30.60;;
55210;SDS011;41082;52.822;6.666;2022-12-10T09:03:07;63.90;;;30.88;;
55210;SDS011;41082;52.822;6.666;2022-12-10T09:05:33;63.63;;;30.63;;
55210;SDS011;41082;52.822;6.666;2022-12-10T09:07:59;63.53;;;30.83;;
55210;SDS011;41082;52.822;6.666;2022-12-10T09:10:25;66.05;;;30.85;;
55210;SDS011;41082;52.822;6.666;2022-12-10T09:12:50;60.80;;;30.13;;
55210;SDS011;41082;52.822;6.666;2022-12-10T09:15:16;64.85;;;30.17;;
55210;SDS011;41082;52.822;6.666;2022-12-10T09:17:42;70.13;;;31.33;;
55210;SDS011;41082;52.822;6.666;2022-12-10T09:20:07;65.90;;;30.42;;
55210;SDS011;41082;52.822;6.666;2022-12-10T09:22:33;67.00;;;32.88;;
55210;SDS011;41082;52.822;6.666;2022-12-10T09:25:02;62.50;;;29.58;;
55210;SDS011;41082;52.822;6.666;2022-12-10T09:27:29;67.68;;;30.88;;
55210;SDS011;41082;52.822;6.666;2022-12-10T09:29:55;62.63;;;30.08;;
55210;SDS011;41082;52.822;6.666;2022-12-10T09:32:20;64.18;;;30.58;;
55210;SDS011;41082;52.822;6.666;2022-12-10T09:34:46;70.75;;;31.83;;
55210;SDS011;41082;52.822;6.666;2022-12-10T09:37:11;64.47;;;31.42;;
55210;SDS011;41082;52.822;6.666;2022-12-10T09:39:37;69.20;;;34.38;;
55210;SDS011;41082;52.822;6.666;2022-12-10T09:47:52;65.65;;;30.08;;
55210;SDS011;41082;52.822;6.666;2022-12-10T09:51:26;64.75;;;31.98;;
55210;SDS011;41082;52.822;6.666;2022-12-10T09:53:24;67.22;;;32.65;;
55210;SDS011;41082;52.822;6.666;2022-12-10T09:55:53;64.20;;;31.65;;
55210;SDS011;41082;52.822;6.666;2022-12-10T09:58:23;66.28;;;31.38;;
55210;SDS011;41082;52.822;6.666;2022-12-10T10:00:51;66.10;;;30.63;;
55210;SDS011;41082;52.822;6.666;2022-12-10T10:05:48;64.22;;;30.65;;
55210;SDS011;41082;52.822;6.666;2022-12-10T10:08:29;58.70;;;29.27;;
55210;SDS011;41082;52.822;6.666;2022-12-10T10:10:59;63.05;;;30.92;;
55210;SDS011;41082;52.822;6.666;2022-12-10T10:19:28;65.50;;;30.45;;
55210;SDS011;41082;52.822;6.666;2022-12-10T10:21:58;63.13;;;29.58;;
55210;SDS011;41082;52.822;6.666;2022-12-10T10:24:36;63.33;;;29.95;;
55210;SDS011;41082;52.822;6.666;2022-12-10T10:27:24;63.05;;;29.95;;
55210;SDS011;41082;52.822;6.666;2022-12-10T10:29:54;60.25;;;29.63;;
55210;SDS011;41082;52.822;6.666;2022-12-10T10:32:43;61.95;;;29.98;;
55210;SDS011;41082;52.822;6.666;2022-12-10T10:35:20;65.07;;;31.60;;
55210;SDS011;41082;52.822;6.666;2022-12-10T10:37:56;68.15;;;33.00;;
55210;SDS011;41082;52.822;6.666;2022-12-10T10:40:38;64.90;;;30.27;;
55210;SDS011;41082;52.822;6.666;2022-12-10T10:43:08;67.88;;;31.13;;
55210;SDS011;41082;52.822;6.666;2022-12-10T10:45:50;70.55;;;31.80;;
55210;SDS011;41082;52.822;6.666;2022-12-10T10:48:27;67.18;;;30.50;;
55210;SDS011;41082;52.822;6.666;2022-12-10T10:50:55;68.07;;;29.65;;
55210;SDS011;41082;52.822;6.666;2022-12-10T10:58:35;68.78;;;31.92;;
55210;SDS011;41082;52.822;6.666;2022-12-10T11:01:06;70.82;;;31.73;;
55210;SDS011;41082;52.822;6.666;2022-12-10T11:03:33;64.88;;;29.48;;
55210;SDS011;41082;52.822;6.666;2022-12-10T11:06:03;67.88;;;32.80;;
55210;SDS011;41082;52.822;6.666;2022-12-10T11:08:32;61.53;;;30.45;;
55210;SDS011;41082;52.822;6.666;2022-12-10T11:11:04;71.88;;;30.35;;
55210;SDS011;41082;52.822;6.666;2022-12-10T11:13:35;65.95;;;31.30;;
55210;SDS011;41082;52.822;6.666;2022-12-10T11:18:51;67.22;;;30.00;;
55210;SDS011;41082;52.822;6.666;2022-12-10T11:21:26;63.78;;;28.55;;
55210;SDS011;41082;52.822;6.666;2022-12-10T11:23:56;66.05;;;29.42;;
55210;SDS011;41082;52.822;6.666;2022-12-10T11:26:33;62.88;;;28.38;;
55210;SDS011;41082;52.822;6.666;2022-12-10T11:29:25;64.78;;;28.70;;
55210;SDS011;41082;52.822;6.666;2022-12-10T11:35:02;69.63;;;31.40;;
55210;SDS011;41082;52.822;6.666;2022-12-10T11:37:38;66.95;;;29.58;;
55210;SDS011;41082;52.822;6.666;2022-12-10T12:05:14;69.95;;;30.58;;
55210;SDS011;41082;52.822;6.666;2022-12-10T12:13:27;61.78;;;27.52;;
55210;SDS011;41082;52.822;6.666;2022-12-10T12:16:20;61.08;;;28.77;;
55210;SDS011;41082;52.822;6.666;2022-12-10T12:19:00;61.85;;;28.38;;
55210;SDS011;41082;52.822;6.666;2022-12-10T12:21:29;64.43;;;28.55;;
55210;SDS011;41082;52.822;6.666;2022-12-10T12:23:56;64.60;;;28.30;;
55210;SDS011;41082;52.822;6.666;2022-12-10T12:26:30;66.97;;;30.67;;
55210;SDS011;41082;52.822;6.666;2022-12-10T12:31:47;65.45;;;28.05;;
55210;SDS011;41082;52.822;6.666;2022-12-10T12:37:14;67.70;;;30.77;;
55210;SDS011;41082;52.822;6.666;2022-12-10T12:39:50;61.30;;;28.92;;
55210;SDS011;41082;52.822;6.666;2022-12-10T12:45:34;60.15;;;27.20;;
55210;SDS011;41082;52.822;6.666;2022-12-10T12:53:24;63.25;;;29.27;;
55210;SDS011;41082;52.822;6.666;2022-12-10T12:58:48;64.03;;;28.35;;
55210;SDS011;41082;52.822;6.666;2022-12-10T13:01:37;65.35;;;29.60;;
55210;SDS011;41082;52.822;6.666;2022-12-10T13:04:08;62.92;;;28.98;;
55210;SDS011;41082;52.822;6.666;2022-12-10T13:06:36;63.05;;;28.67;;
55210;SDS011;41082;52.822;6.666;2022-12-10T13:11:38;67.75;;;31.25;;
55210;SDS011;41082;52.822;6.666;2022-12-10T13:29:59;77.18;;;32.38;;
55210;SDS011;41082;52.822;6.666;2022-12-10T13:32:23;72.60;;;32.63;;
55210;SDS011;41082;52.822;6.666;2022-12-10T13:37:34;72.85;;;33.35;;
55210;SDS011;41082;52.822;6.666;2022-12-10T13:42:34;73.00;;;29.42;;
55210;SDS011;41082;52.822;6.666;2022-12-10T13:45:24;69.25;;;30.25;;
55210;SDS011;41082;52.822;6.666;2022-12-10T13:47:53;71.47;;;30.77;;
55210;SDS011;41082;52.822;6.666;2022-12-10T13:53:03;70.47;;;30.60;;
55210;SDS011;41082;52.822;6.666;2022-12-10T13:58:41;72.22;;;29.20;;
55210;SDS011;41082;52.822;6.666;2022-12-10T14:01:22;77.68;;;32.53;;
55210;SDS011;41082;52.822;6.666;2022-12-10T14:06:55;73.75;;;30.48;;
55210;SDS011;41082;52.822;6.666;2022-12-10T14:09:22;76.28;;;33.35;;
55210;SDS011;41082;52.822;6.666;2022-12-10T14:12:02;79.63;;;32.65;;
55210;SDS011;41082;52.822;6.666;2022-12-10T14:14:42;77.28;;;32.22;;
55210;SDS011;41082;52.822;6.666;2022-12-10T14:17:16;75.68;;;31.10;;
55210;SDS011;41082;52.822;6.666;2022-12-10T14:19:49;71.30;;;30.98;;
55210;SDS011;41082;52.822;6.666;2022-12-10T14:22:19;79.32;;;33.17;;
55210;SDS011;41082;52.822;6.666;2022-12-10T14:25:12;76.03;;;30.50;;
55210;SDS011;41082;52.822;6.666;2022-12-10T14:27:40;75.07;;;31.42;;
55210;SDS011;41082;52.822;6.666;2022-12-10T14:30:14;76.95;;;32.28;;
55210;SDS011;41082;52.822;6.666;2022-12-10T14:32:53;77.40;;;31.23;;
55210;SDS011;41082;52.822;6.666;2022-12-10T14:35:23;77.43;;;32.13;;
55210;SDS011;41082;52.822;6.666;2022-12-10T14:37:51;68.03;;;30.70;;
55210;SDS011;41082;52.822;6.666;2022-12-10T14:42:47;66.20;;;27.83;;
55210;SDS011;41082;52.822;6.666;2022-12-10T14:45:14;66.80;;;27.15;;
55210;SDS011;41082;52.822;6.666;2022-12-10T14:47:41;68.22;;;27.05;;
55210;SDS011;41082;52.822;6.666;2022-12-10T14:50:14;65.95;;;27.35;;
55210;SDS011;41082;52.822;6.666;2022-12-10T14:52:42;73.50;;;27.80;;
55210;SDS011;41082;52.822;6.666;2022-12-10T14:55:16;68.93;;;27.90;;
55210;SDS011;41082;52.822;6.666;2022-12-10T14:57:46;67.85;;;28.65;;
55210;SDS011;41082;52.822;6.666;2022-12-10T15:00:17;70.68;;;27.98;;
55210;SDS011;41082;52.822;6.666;2022-12-10T15:02:47;73.75;;;28.52;;
55210;SDS011;41082;52.822;6.666;2022-12-10T15:05:18;72.05;;;29.13;;
55210;SDS011;41082;52.822;6.666;2022-12-10T15:10:24;73.05;;;29.63;;
55210;SDS011;41082;52.822;6.666;2022-12-10T15:13:00;70.65;;;28.88;;
55210;SDS011;41082;52.822;6.666;2022-12-10T15:15:34;66.78;;;26.90;;
55210;SDS011;41082;52.822;6.666;2022-12-10T15:23:17;72.10;;;29.65;;
55210;SDS011;41082;52.822;6.666;2022-12-10T15:28:27;69.63;;;27.55;;
55210;SDS011;41082;52.822;6.666;2022-12-10T15:31:42;65.18;;;28.20;;
55210;SDS011;41082;52.822;6.666;2022-12-10T15:33:55;69.47;;;26.73;;
55210;SDS011;41082;52.822;6.666;2022-12-10T15:36:34;67.95;;;25.48;;
55210;SDS011;41082;52.822;6.666;2022-12-10T15:42:25;67.43;;;27.30;;
55210;SDS011;41082;52.822;6.666;2022-12-10T15:47:58;65.38;;;28.30;;
55210;SDS011;41082;52.822;6.666;2022-12-10T15:50:40;68.97;;;26.48;;
55210;SDS011;41082;52.822;6.666;2022-12-10T15:53:09;65.22;;;26.02;;
55210;SDS011;41082;52.822;6.666;2022-12-10T15:55:37;70.00;;;28.38;;
55210;SDS011;41082;52.822;6.666;2022-12-10T15:58:07;70.88;;;28.13;;
55210;SDS011;41082;52.822;6.666;2022-12-10T16:00:36;69.28;;;28.10;;
55210;SDS011;41082;52.822;6.666;2022-12-10T16:03:05;65.68;;;26.48;;
55210;SDS011;41082;52.822;6.666;2022-12-10T16:05:36;68.45;;;26.90;;
55210;SDS011;41082;52.822;6.666;2022-12-10T16:08:11;69.20;;;25.88;;
55210;SDS011;41082;52.822;6.666;2022-12-10T16:10:43;67.30;;;26.67;;
55210;SDS011;41082;52.822;6.666;2022-12-10T16:13:11;72.00;;;26.88;;
55210;SDS011;41082;52.822;6.666;2022-12-10T16:15:45;68.07;;;27.13;;
55210;SDS011;41082;52.822;6.666;2022-12-10T16:18:30;70.25;;;27.92;;
55210;SDS011;41082;52.822;6.666;2022-12-10T16:20:56;67.82;;;27.02;;
55210;SDS011;41082;52.822;6.666;2022-12-10T16:23:25;63.72;;;24.85;;
55210;SDS011;41082;52.822;6.666;2022-12-10T16:25:50;64.22;;;26.25;;
55210;SDS011;41082;52.822;6.666;2022-12-10T16:28:17;69.43;;;26.67;;
55210;SDS011;41082;52.822;6.666;2022-12-10T16:30:48;69.32;;;26.15;;
55210;SDS011;41082;52.822;6.666;2022-12-10T16:33:18;65.28;;;25.63;;
55210;SDS011;41082;52.822;6.666;2022-12-10T16:35:45;71.18;;;25.90;;
55210;SDS011;41082;52.822;6.666;2022-12-10T16:38:12;65.05;;;24.90;;
55210;SDS011;41082;52.822;6.666;2022-12-10T16:40:38;57.25;;;24.33;;
55210;SDS011;41082;52.822;6.666;2022-12-10T16:43:05;60.50;;;24.02;;
55210;SDS011;41082;52.822;6.666;2022-12-10T16:45:36;62.70;;;23.65;;
55210;SDS011;41082;52.822;6.666;2022-12-10T16:48:03;62.25;;;24.20;;
55210;SDS011;41082;52.822;6.666;2022-12-10T16:50:29;66.03;;;25.88;;
55210;SDS011;41082;52.822;6.666;2022-12-10T16:52:55;75.20;;;27.92;;
55210;SDS011;41082;52.822;6.666;2022-12-10T16:55:23;68.30;;;25.50;;
55210;SDS011;41082;52.822;6.666;2022-12-10T16:57:50;65.00;;;24.80;;
55210;SDS011;41082;52.822;6.666;2022-12-10T17:00:18;67.47;;;25.30;;
55210;SDS011;41082;52.822;6.666;2022-12-10T17:02:46;68.13;;;26.55;;
55210;SDS011;41082;52.822;6.666;2022-12-10T17:05:14;69.05;;;25.98;;